Time;durP1;ratioP1;P1;durP2;ratioP2;P2;SDS_P1;SDS_P2;PMS_P1;PMS_P2;Temp;Humidity;BMP_temperature;BMP_pressure;BME280_temperature;BME280_humidity;BME280_pressure;Samples;Min_cycle;Max_cycle;Signal;HPM_P1;HPM_P2
2022/10/31 00:02:12;;;;;;;11.70;8.33;;;;;13.20;101513.00;;;;10308079;28;20177;-77
2022/10/31 00:07:14;;;;;;;16.63;10.03;;;;;13.20;101518.00;;;;10289718;28;20227;-77
2022/10/31 00:12:16;;;;;;;16.30;8.90;;;;;13.10;101501.00;;;;10319884;28;20208;-77
2022/10/31 00:17:18;;;;;;;14.00;8.53;;;;;13.00;101506.00;;;;10307714;28;20272;-76
2022/10/31 00:22:20;;;;;;;13.37;8.70;;;;;12.90;101497.00;;;;10357191;28;20271;-77
2022/10/31 00:27:22;;;;;;;15.60;9.93;;;;;12.80;101502.00;;;;10341616;28;20223;-77
2022/10/31 00:32:23;;;;;;;16.77;10.60;;;;;12.70;101500.00;;;;10356645;28;20245;-77
2022/10/31 00:37:26;;;;;;;13.77;10.17;;;;;12.60;101506.00;;;;10273018;28;20652;-77
2022/10/31 00:42:28;;;;;;;14.47;9.67;;;;;12.60;101493.00;;;;10299503;28;20203;-77
2022/10/31 00:47:32;;;;;;;18.67;10.73;;;;;12.50;101505.00;;;;10302412;28;20213;-77
2022/10/31 00:52:34;;;;;;;17.80;10.40;;;;;12.40;101508.00;;;;10275967;28;20197;-77
2022/10/31 00:57:37;;;;;;;16.63;9.57;;;;;12.20;101508.00;;;;10282539;28;20219;-77
2022/10/31 01:02:39;;;;;;;14.07;10.00;;;;;12.00;101503.00;;;;10297881;28;20192;-77
2022/10/31 01:07:42;;;;;;;13.50;9.57;;;;;11.80;101500.00;;;;10269856;28;20219;-77
2022/10/31 01:12:46;;;;;;;13.20;9.03;;;;;11.70;101520.00;;;;10294157;28;20311;-77
2022/10/31 01:17:49;;;;;;;18.23;11.63;;;;;11.60;101507.00;;;;10313775;28;20183;-77
2022/10/31 01:22:51;;;;;;;16.67;11.73;;;;;11.50;101516.00;;;;10338286;28;20194;-77
2022/10/31 01:27:52;;;;;;;18.17;11.63;;;;;11.50;101525.00;;;;10296101;28;20255;-77
2022/10/31 01:32:54;;;;;;;20.37;11.10;;;;;11.50;101514.00;;;;10290173;28;20682;-77
2022/10/31 01:37:56;;;;;;;19.70;12.27;;;;;11.50;101514.00;;;;10288485;28;20200;-77
2022/10/31 01:42:58;;;;;;;18.40;12.30;;;;;11.50;101506.00;;;;10312918;28;20231;-77
2022/10/31 01:48:01;;;;;;;19.27;12.13;;;;;11.50;101502.00;;;;10313076;28;20196;-77
2022/10/31 01:53:07;;;;;;;19.13;12.10;;;;;11.40;101493.00;;;;10331533;28;20204;-77
2022/10/31 01:58:19;;;;;;;20.00;11.63;;;;;11.30;101491.00;;;;10330118;28;20657;-77
2022/10/31 02:03:22;;;;;;;16.07;11.53;;;;;11.10;101485.00;;;;10297151;28;20661;-77
2022/10/31 02:08:33;;;;;;;21.77;11.83;;;;;11.00;101477.00;;;;10312116;28;20701;-77
2022/10/31 02:13:35;;;;;;;18.57;11.73;;;;;11.00;101479.00;;;;10295592;28;20291;-77
2022/10/31 02:18:42;;;;;;;19.90;11.47;;;;;10.90;101477.00;;;;10344668;28;20188;-76
2022/10/31 02:24:21;;;;;;;17.77;11.37;;;;;10.90;101475.00;;;;10347566;28;20199;-77
2022/10/31 02:29:34;;;;;;;22.30;12.37;;;;;10.90;101477.00;;;;10293826;28;20236;-76
2022/10/31 02:34:47;;;;;;;19.83;10.70;;;;;10.90;101474.00;;;;10277159;28;20286;-76
2022/10/31 02:40:17;;;;;;;25.50;12.33;;;;;10.90;101458.00;;;;10304533;28;20176;-77
2022/10/31 02:46:15;;;;;;;17.50;11.50;;;;;10.80;101465.00;;;;10212232;28;20208;-77
2022/10/31 02:51:18;;;;;;;20.47;12.20;;;;;10.70;101456.00;;;;10319875;28;20753;-78
2022/10/31 02:56:20;;;;;;;16.63;11.07;;;;;10.70;101457.00;;;;10312313;28;20203;-77
2022/10/31 03:01:48;;;;;;;18.77;11.03;;;;;10.60;101453.00;;;;10317715;28;20829;-77
2022/10/31 03:07:15;;;;;;;21.50;11.80;;;;;10.60;101456.00;;;;10281633;28;20271;-77
2022/10/31 03:12:47;;;;;;;20.57;10.80;;;;;10.70;101444.00;;;;10300450;28;20295;-77
2022/10/31 03:18:05;;;;;;;16.03;9.73;;;;;10.70;101447.00;;;;10284613;28;20271;-76
2022/10/31 03:23:13;;;;;;;16.30;9.50;;;;;10.60;101441.00;;;;10269126;28;20566;-76
2022/10/31 03:28:21;;;;;;;14.17;8.80;;;;;10.60;101442.00;;;;10284279;28;20196;-77
2022/10/31 03:33:28;;;;;;;14.90;9.23;;;;;10.50;101448.00;;;;10268329;28;20208;-77
2022/10/31 03:38:31;;;;;;;13.33;9.00;;;;;10.40;101441.00;;;;10300596;28;20673;-76
2022/10/31 03:43:45;;;;;;;13.83;9.73;;;;;10.40;101426.00;;;;10302648;28;20192;-78
2022/10/31 03:48:48;;;;;;;15.40;9.33;;;;;10.30;101438.00;;;;10318449;28;20682;-78
2022/10/31 03:54:00;;;;;;;14.23;9.63;;;;;10.20;101436.00;;;;10333959;28;20204;-78
2022/10/31 03:59:13;;;;;;;16.00;9.07;;;;;10.10;101443.00;;;;10302232;28;20193;-78
2022/10/31 04:04:16;;;;;;;14.83;9.30;;;;;10.00;101441.00;;;;10318867;28;20224;-78
2022/10/31 04:09:20;;;;;;;15.67;9.53;;;;;9.90;101438.00;;;;10334913;28;20216;-78
2022/10/31 04:14:24;;;;;;;13.60;8.47;;;;;9.90;101438.00;;;;10302440;28;20201;-78
2022/10/31 04:19:26;;;;;;;16.93;9.30;;;;;9.80;101432.00;;;;10334364;28;20268;-78
2022/10/31 04:24:29;;;;;;;15.73;9.43;;;;;9.80;101434.00;;;;10315526;28;20188;-78
2022/10/31 04:29:32;;;;;;;16.00;10.57;;;;;9.70;101427.00;;;;10301402;28;20693;-78
2022/10/31 04:34:34;;;;;;;15.47;8.80;;;;;9.70;101428.00;;;;10318146;28;20199;-78
2022/10/31 04:39:35;;;;;;;13.23;8.93;;;;;9.60;101433.00;;;;10300882;28;20259;-78
2022/10/31 04:45:00;;;;;;;20.87;8.97;;;;;9.60;101418.00;;;;10254131;28;20207;-78
2022/10/31 04:50:04;;;;;;;10.83;7.33;;;;;9.50;101414.00;;;;10285618;28;20412;-78
2022/10/31 04:55:09;;;;;;;11.13;7.00;;;;;9.50;101423.00;;;;10284180;28;20667;-78
2022/10/31 05:00:30;;;;;;;10.97;7.60;;;;;9.50;101425.00;;;;10302416;28;20598;-78
2022/10/31 05:05:32;;;;;;;19.03;10.53;;;;;9.60;101428.00;;;;10331746;28;20220;-78
2022/10/31 05:10:37;;;;;;;22.27;11.27;;;;;9.70;101422.00;;;;10315203;28;20303;-78
2022/10/31 05:15:39;;;;;;;17.27;11.37;;;;;9.80;101414.00;;;;10323109;28;20682;-78
2022/10/31 05:21:20;;;;;;;14.53;10.23;;;;;9.90;101408.00;;;;10207608;29;20302;-78
2022/10/31 05:26:26;;;;;;;13.63;8.77;;;;;10.00;101402.00;;;;10233771;28;20656;-78
2022/10/31 05:31:29;;;;;;;16.20;9.80;;;;;9.90;101402.00;;;;10258232;28;20216;-78
2022/10/31 05:36:31;;;;;;;13.33;8.23;;;;;9.90;101403.00;;;;10297801;28;20264;-78
2022/10/31 05:41:35;;;;;;;13.80;9.17;;;;;9.90;101398.00;;;;10298795;28;20176;-78
2022/10/31 05:46:47;;;;;;;12.57;8.87;;;;;9.90;101393.00;;;;10268185;28;20193;-78
2022/10/31 05:52:25;;;;;;;15.30;10.03;;;;;9.90;101394.00;;;;10191643;28;20232;-78
2022/10/31 05:57:37;;;;;;;15.17;9.57;;;;;9.90;101394.00;;;;10256259;28;20263;-76
2022/10/31 06:02:39;;;;;;;16.33;10.33;;;;;9.90;101400.00;;;;10273247;28;20236;-78
2022/10/31 06:07:55;;;;;;;22.10;11.07;;;;;10.00;101405.00;;;;10299344;28;20212;-78
2022/10/31 06:12:59;;;;;;;17.67;10.23;;;;;10.10;101394.00;;;;10296702;28;20216;-78
2022/10/31 06:18:24;;;;;;;18.30;11.03;;;;;10.20;101385.00;;;;10327350;28;20194;-78
2022/10/31 06:23:28;;;;;;;20.40;11.57;;;;;10.30;101386.00;;;;10377515;28;20213;-78
2022/10/31 06:28:50;;;;;;;20.43;12.23;;;;;10.40;101384.00;;;;10345993;28;20282;-78
2022/10/31 06:34:07;;;;;;;23.43;13.17;;;;;10.50;101388.00;;;;10336053;28;20687;-78
2022/10/31 06:39:09;;;;;;;20.27;11.80;;;;;10.50;101388.00;;;;10304472;28;20824;-78
2022/10/31 06:44:11;;;;;;;24.13;13.60;;;;;10.60;101396.00;;;;10319724;28;20195;-78
2022/10/31 06:49:28;;;;;;;25.70;13.70;;;;;10.70;101392.00;;;;10304615;28;20278;-78
2022/10/31 06:54:34;;;;;;;22.13;13.37;;;;;10.80;101387.00;;;;10303672;28;20227;-78
2022/10/31 06:59:37;;;;;;;23.80;13.80;;;;;10.90;101374.00;;;;10271073;28;20192;-78
2022/10/31 07:04:52;;;;;;;27.93;13.83;;;;;11.10;101380.00;;;;10319091;28;20255;-78
2022/10/31 07:09:54;;;;;;;21.17;13.33;;;;;11.30;101382.00;;;;10287227;28;20208;-78
2022/10/31 07:15:11;;;;;;;22.33;14.10;;;;;11.40;101385.00;;;;10298188;28;20192;-78
2022/10/31 07:20:13;;;;;;;22.13;14.20;;;;;11.60;101385.00;;;;10302921;28;20198;-78
2022/10/31 07:25:16;;;;;;;22.53;14.17;;;;;11.80;101374.00;;;;10302760;28;20588;-78
2022/10/31 07:30:39;;;;;;;26.47;14.73;;;;;11.90;101380.00;;;;10303020;28;20213;-77
2022/10/31 07:35:42;;;;;;;20.90;12.77;;;;;12.10;101374.00;;;;10283854;28;20331;-77
2022/10/31 07:40:52;;;;;;;21.93;13.93;;;;;12.30;101382.00;;;;10299306;28;20275;-77
2022/10/31 07:45:54;;;;;;;22.17;13.50;;;;;12.40;101399.00;;;;10283202;28;20813;-77
2022/10/31 07:51:15;;;;;;;24.97;13.67;;;;;12.50;101399.00;;;;10298497;28;20263;-77
2022/10/31 07:56:48;;;;;;;26.97;14.13;;;;;12.60;101396.00;;;;10298061;28;20200;-77
2022/10/31 08:01:50;;;;;;;21.37;13.67;;;;;12.70;101383.00;;;;10314133;28;20181;-77
2022/10/31 08:07:04;;;;;;;20.00;13.50;;;;;12.80;101380.00;;;;10313835;28;20228;-76
2022/10/31 08:12:10;;;;;;;22.53;14.10;;;;;12.90;101363.00;;;;10329956;28;20208;-77
2022/10/31 08:17:12;;;;;;;19.23;12.77;;;;;13.00;101337.00;;;;10351524;28;20223;-77
2022/10/31 08:22:21;;;;;;;20.30;13.63;;;;;13.20;101332.00;;;;10353974;28;20267;-77
2022/10/31 08:27:23;;;;;;;20.73;13.07;;;;;13.30;101340.00;;;;10321949;28;20195;-77
2022/10/31 08:32:25;;;;;;;21.10;13.27;;;;;13.40;101349.00;;;;10337530;28;20266;-77
2022/10/31 08:37:55;;;;;;;20.67;13.37;;;;;13.40;101332.00;;;;10310091;28;20212;-77
2022/10/31 08:43:05;;;;;;;20.57;13.70;;;;;13.30;101323.00;;;;10323343;28;20275;-77
2022/10/31 08:48:13;;;;;;;24.00;13.33;;;;;13.20;101315.00;;;;10297142;28;20220;-77
2022/10/31 08:53:18;;;;;;;24.30;14.80;;;;;13.30;101288.00;;;;10296253;28;20261;-77
2022/10/31 08:58:27;;;;;;;22.47;14.97;;;;;13.60;101291.00;;;;10296104;28;20736;-77
2022/10/31 09:03:33;;;;;;;25.53;13.77;;;;;13.80;101309.00;;;;10327796;28;20651;-77
2022/10/31 09:08:35;;;;;;;22.90;13.73;;;;;13.90;101309.00;;;;10304378;28;20245;-76
2022/10/31 09:13:38;;;;;;;20.77;14.87;;;;;14.00;101310.00;;;;10311817;28;20607;-76
2022/10/31 09:19:05;;;;;;;24.27;14.23;;;;;14.30;101318.00;;;;10323348;28;20266;-76
2022/10/31 09:24:12;;;;;;;23.73;15.33;;;;;14.50;101314.00;;;;10283991;28;20188;-76
2022/10/31 09:29:16;;;;;;;22.40;13.97;;;;;14.50;101293.00;;;;10292986;28;20219;-77
2022/10/31 09:34:19;;;;;;;21.17;13.57;;;;;14.30;101290.00;;;;10295140;28;20208;-76
2022/10/31 09:39:30;;;;;;;23.30;14.43;;;;;14.20;101275.00;;;;10299067;28;20215;-76
2022/10/31 09:44:39;;;;;;;22.17;14.80;;;;;14.10;101263.00;;;;10327349;28;20196;-77
2022/10/31 09:50:14;;;;;;;27.03;14.73;;;;;14.10;101291.00;;;;10300933;28;20203;-77
2022/10/31 09:55:23;;;;;;;19.30;12.57;;;;;14.10;101270.00;;;;10297305;28;20200;-77
2022/10/31 10:00:25;;;;;;;22.90;14.50;;;;;14.30;101256.00;;;;10286938;28;20172;-77
2022/10/31 10:05:45;;;;;;;26.63;14.97;;;;;14.70;101249.00;;;;10297408;28;20236;-77
2022/10/31 10:11:17;;;;;;;24.00;16.67;;;;;15.20;101242.00;;;;10278585;28;20260;-77
2022/10/31 10:16:56;;;;;;;26.17;15.83;;;;;15.50;101251.00;;;;10304484;28;20187;-77
2022/10/31 10:22:23;;;;;;;22.88;15.10;;;;;15.80;101238.00;;;;10339886;28;20603;-77
2022/10/31 10:27:47;;;;;;;28.17;16.90;;;;;16.00;101253.00;;;;10302097;28;20196;-77
2022/10/31 10:32:58;;;;;;;25.38;16.45;;;;;16.30;101239.00;;;;10303224;28;20212;-77
2022/10/31 10:38:09;;;;;;;23.87;15.93;;;;;16.70;101243.00;;;;10270772;28;20203;-77
2022/10/31 10:43:23;;;;;;;24.67;15.02;;;;;16.80;101211.00;;;;10302337;28;20184;-77
2022/10/31 10:48:37;;;;;;;24.80;14.52;;;;;16.70;101191.00;;;;10335780;28;20211;-77
2022/10/31 10:54:03;;;;;;;27.13;15.55;;;;;16.80;101201.00;;;;10303142;28;20296;-77
2022/10/31 10:59:15;;;;;;;26.05;15.98;;;;;17.30;101171.00;;;;10335428;28;20659;-78
2022/10/31 11:04:29;;;;;;;25.73;15.90;;;;;17.70;101176.00;;;;10317321;28;20192;-76
2022/10/31 11:09:32;;;;;;;26.60;16.15;;;;;17.70;101168.00;;;;10318210;28;20663;-78
2022/10/31 11:14:54;;;;;;;21.35;15.43;;;;;17.70;101154.00;;;;10324762;28;20211;-78
2022/10/31 11:20:24;;;;;;;26.63;16.17;;;;;17.90;101138.00;;;;10361587;28;20184;-78
2022/10/31 11:25:26;;;;;;;25.52;15.75;;;;;17.80;101122.00;;;;10345799;28;20200;-78
2022/10/31 11:30:29;;;;;;;30.65;15.95;;;;;17.80;101111.00;;;;10361328;28;20267;-78
2022/10/31 11:35:31;;;;;;;21.02;14.35;;;;;17.90;101095.00;;;;10327043;28;20246;-77
2022/10/31 11:40:33;;;;;;;24.50;15.32;;;;;18.00;101088.00;;;;10306917;28;20219;-78
2022/10/31 11:45:36;;;;;;;22.95;14.32;;;;;18.00;101081.00;;;;10340250;28;20192;-76
2022/10/31 11:50:41;;;;;;;21.33;13.82;;;;;17.90;101064.00;;;;10307049;28;20251;-78
2022/10/31 11:55:44;;;;;;;28.08;14.13;;;;;18.10;101050.00;;;;10299406;28;20251;-78
2022/10/31 12:00:50;;;;;;;20.20;13.70;;;;;18.60;101039.00;;;;10291179;28;20212;-78
2022/10/31 12:06:14;;;;;;;20.73;13.07;;;;;19.20;101035.00;;;;10299529;28;20259;-78
2022/10/31 12:11:31;;;;;;;21.55;12.00;;;;;20.00;101015.00;;;;10317497;28;20255;-78
2022/10/31 12:16:48;;;;;;;22.23;10.50;;;;;20.60;100994.00;;;;10346239;28;20192;-76
2022/10/31 12:21:59;;;;;;;18.42;10.95;;;;;20.60;100980.00;;;;10298778;28;20199;-75
2022/10/31 12:27:26;;;;;;;12.55;9.13;;;;;20.80;100963.00;;;;10298291;28;20201;-76
2022/10/31 12:32:49;;;;;;;16.95;9.52;;;;;20.90;100957.00;;;;10298108;28;20267;-76
2022/10/31 12:38:43;;;;;;;18.25;10.05;;;;;20.80;100958.00;;;;10313767;28;20192;-76
2022/10/31 12:43:51;;;;;;;15.32;8.75;;;;;20.90;100951.00;;;;10262516;28;20200;-75
2022/10/31 12:49:22;;;;;;;17.88;8.60;;;;;20.80;100943.00;;;;10281292;28;20196;-76
2022/10/31 12:54:27;;;;;;;14.60;8.95;;;;;19.80;100928.00;;;;10292105;28;20223;-76
2022/10/31 12:59:40;;;;;;;24.98;9.85;;;;;19.60;100925.00;;;;10315677;28;20726;-76
2022/10/31 13:04:45;;;;;;;16.40;8.32;;;;;19.70;100907.00;;;;10304531;28;20227;-75
2022/10/31 13:09:59;;;;;;;18.92;8.70;;;;;20.00;100901.00;;;;10325826;28;20291;-78
2022/10/31 13:15:21;;;;;;;133.75;19.90;;;;;20.10;100895.00;;;;10306901;28;20625;-75
2022/10/31 13:20:38;;;;;;;12.50;8.00;;;;;20.30;100865.00;;;;10313991;28;20195;-76
2022/10/31 13:25:46;;;;;;;19.48;7.88;;;;;20.80;100853.00;;;;10297852;28;20204;-76
2022/10/31 13:30:49;;;;;;;13.23;6.75;;;;;20.90;100838.00;;;;10295320;28;20272;-77
2022/10/31 13:36:04;;;;;;;14.27;7.70;;;;;20.60;100823.00;;;;10296220;28;20267;-77
2022/10/31 13:41:27;;;;;;;16.67;6.80;;;;;20.40;100802.00;;;;10312064;28;20191;-77
2022/10/31 13:46:32;;;;;;;12.45;6.15;;;;;20.40;100797.00;;;;10274721;28;20208;-77
2022/10/31 13:51:34;;;;;;;10.95;5.68;;;;;20.20;100794.00;;;;10311039;28;20213;-76
2022/10/31 13:56:37;;;;;;;9.55;5.50;;;;;21.10;100776.00;;;;10279462;28;20226;-77
2022/10/31 14:01:47;;;;;;;13.23;6.45;;;;;22.30;100762.00;;;;10311287;28;20192;-76
2022/10/31 14:07:11;;;;;;;12.50;5.15;;;;;22.70;100752.00;;;;10295326;28;20247;-76
2022/10/31 14:12:31;;;;;;;11.68;5.47;;;;;22.00;100735.00;;;;10311470;28;20287;-76
2022/10/31 14:17:53;;;;;;;14.23;6.03;;;;;20.90;100745.00;;;;10295099;28;20196;-76
2022/10/31 14:22:55;;;;;;;10.82;5.53;;;;;20.90;100744.00;;;;10310961;28;20493;-77
2022/10/31 14:27:59;;;;;;;8.70;4.90;;;;;21.20;100728.00;;;;10310877;28;20196;-76
2022/10/31 14:33:16;;;;;;;13.07;5.93;;;;;21.10;100693.00;;;;10295736;28;20556;-77
2022/10/31 14:38:55;;;;;;;9.98;5.68;;;;;20.90;100714.00;;;;10270691;28;20208;-76
2022/10/31 14:44:09;;;;;;;10.23;5.63;;;;;20.80;100691.00;;;;10292914;28;20244;-77
2022/10/31 14:49:23;;;;;;;13.68;5.78;;;;;19.90;100707.00;;;;10328344;28;20663;-76
2022/10/31 14:54:28;;;;;;;13.32;6.13;;;;;20.10;100692.00;;;;10301226;28;20223;-77
2022/10/31 14:59:33;;;;;;;11.30;6.53;;;;;19.10;100690.00;;;;10317652;28;20192;-77
2022/10/31 15:04:35;;;;;;;11.30;6.00;;;;;18.80;100674.00;;;;10317185;28;20547;-77
2022/10/31 15:09:40;;;;;;;11.20;6.68;;;;;18.60;100682.00;;;;10306570;28;20200;-77
2022/10/31 15:14:41;;;;;;;12.38;6.65;;;;;18.20;100674.00;;;;10291374;28;20250;-77
2022/10/31 15:19:44;;;;;;;10.43;6.97;;;;;17.80;100672.00;;;;10357039;28;20203;-77
2022/10/31 15:24:47;;;;;;;13.07;7.35;;;;;17.50;100649.00;;;;10356660;28;20214;-77
2022/10/31 15:29:55;;;;;;;12.27;7.45;;;;;17.30;100648.00;;;;10356958;28;20206;-77
2022/10/31 15:34:57;;;;;;;13.30;8.30;;;;;17.00;100648.00;;;;10309153;28;20250;-76
2022/10/31 15:40:07;;;;;;;16.73;8.23;;;;;16.90;100640.00;;;;10284196;28;20196;-77
2022/10/31 15:45:09;;;;;;;18.23;8.68;;;;;16.70;100642.00;;;;10315729;28;20243;-77
2022/10/31 15:50:31;;;;;;;15.85;9.10;;;;;16.50;100642.00;;;;10299561;28;20193;-76
2022/10/31 15:55:47;;;;;;;14.75;8.93;;;;;16.40;100630.00;;;;10303755;28;20691;-77
2022/10/31 16:01:01;;;;;;;14.90;10.40;;;;;16.20;100627.00;;;;10295545;28;20197;-77
2022/10/31 16:06:05;;;;;;;13.88;10.40;;;;;16.00;100615.00;;;;10298535;28;20263;-77
2022/10/31 16:11:06;;;;;;;17.30;10.40;;;;;15.90;100627.00;;;;10298625;28;20196;-77
2022/10/31 16:16:14;;;;;;;17.73;10.68;;;;;15.80;100612.00;;;;10348166;28;20195;-76
2022/10/31 16:21:38;;;;;;;19.58;11.15;;;;;15.80;100608.00;;;;10288667;28;20643;-77
2022/10/31 16:26:40;;;;;;;22.65;10.80;;;;;15.70;100593.00;;;;10331043;28;20238;-77
2022/10/31 16:31:42;;;;;;;19.15;11.52;;;;;15.50;100603.00;;;;10283267;28;20315;-79
2022/10/31 16:36:44;;;;;;;22.08;10.20;;;;;15.30;100590.00;;;;10295552;28;20236;-77
2022/10/31 16:41:51;;;;;;;23.83;11.23;;;;;15.20;100583.00;;;;10305737;28;20184;-77
2022/10/31 16:47:13;;;;;;;17.92;11.18;;;;;15.00;100598.00;;;;10318146;28;20647;-75
2022/10/31 16:52:16;;;;;;;19.23;11.32;;;;;14.90;100591.00;;;;10317839;28;20204;-76
2022/10/31 16:57:26;;;;;;;21.33;11.33;;;;;14.80;100575.00;;;;10266615;28;20644;-76
2022/10/31 17:02:29;;;;;;;16.93;10.70;;;;;14.60;100575.00;;;;10284111;28;20197;-77
2022/10/31 17:07:30;;;;;;;14.70;10.40;;;;;14.50;100566.00;;;;10299268;28;20279;-77
2022/10/31 17:12:33;;;;;;;21.80;10.63;;;;;14.40;100559.00;;;;10300890;28;20344;-77
2022/10/31 17:17:35;;;;;;;15.73;9.17;;;;;14.30;100563.00;;;;10336862;28;20199;-76
2022/10/31 17:22:37;;;;;;;13.35;8.50;;;;;14.20;100567.00;;;;10375105;28;20590;-77
2022/10/31 17:27:38;;;;;;;13.67;7.53;;;;;14.30;100566.00;;;;10358792;28;20191;-77
2022/10/31 17:32:48;;;;;;;12.97;7.30;;;;;14.40;100564.00;;;;10231267;28;20215;-76
2022/10/31 17:37:50;;;;;;;14.77;8.13;;;;;14.60;100561.00;;;;10298266;28;20542;-76
2022/10/31 17:42:55;;;;;;;12.53;7.80;;;;;14.80;100560.00;;;;10319017;28;20276;-77
2022/10/31 17:47:57;;;;;;;15.98;7.00;;;;;15.00;100557.00;;;;10285749;28;20193;-78
2022/10/31 17:52:59;;;;;;;10.73;6.13;;;;;15.10;100555.00;;;;10264093;28;20211;-77
2022/10/31 17:58:02;;;;;;;14.32;6.70;;;;;15.20;100549.00;;;;10333829;28;20559;-77
2022/10/31 18:03:04;;;;;;;14.00;6.40;;;;;15.20;100548.00;;;;10297699;28;20287;-77
2022/10/31 18:08:06;;;;;;;15.45;6.03;;;;;15.30;100537.00;;;;10267333;28;20235;-77
2022/10/31 18:13:08;;;;;;;9.98;5.55;;;;;15.40;100529.00;;;;10330526;28;20259;-77
2022/10/31 18:18:10;;;;;;;10.43;5.97;;;;;15.60;100542.00;;;;10331126;28;20184;-77
2022/10/31 18:23:12;;;;;;;11.10;5.00;;;;;15.60;100526.00;;;;10325490;28;20663;-77
2022/10/31 18:28:14;;;;;;;12.35;5.72;;;;;15.60;100527.00;;;;10305091;28;20215;-77
2022/10/31 18:33:15;;;;;;;11.45;4.93;;;;;15.70;100528.00;;;;10321466;28;20332;-77
2022/10/31 18:38:17;;;;;;;10.07;5.45;;;;;15.70;100525.00;;;;10319966;28;20552;-76
2022/10/31 18:43:19;;;;;;;7.85;4.85;;;;;15.70;100521.00;;;;10321846;28;20567;-77
2022/10/31 18:48:21;;;;;;;9.20;5.55;;;;;15.70;100518.00;;;;10305108;28;20598;-77
2022/10/31 18:53:23;;;;;;;16.55;5.60;;;;;15.60;100522.00;;;;10304627;28;20679;-77
2022/10/31 18:58:27;;;;;;;9.23;5.30;;;;;15.60;100519.00;;;;10287676;28;20679;-77
2022/10/31 19:03:29;;;;;;;10.35;5.00;;;;;15.70;100506.00;;;;10305114;28;20555;-77
2022/10/31 19:08:31;;;;;;;6.82;4.43;;;;;15.70;100497.00;;;;10317967;28;20274;-76
2022/10/31 19:13:34;;;;;;;10.98;5.78;;;;;15.70;100500.00;;;;10333663;28;20556;-76
2022/10/31 19:18:36;;;;;;;11.17;5.23;;;;;15.70;100489.00;;;;10305633;28;20193;-77
2022/10/31 19:23:39;;;;;;;13.57;5.80;;;;;15.70;100479.00;;;;10276936;28;20285;-77
2022/10/31 19:28:41;;;;;;;12.68;6.25;;;;;15.60;100474.00;;;;10275691;28;20181;-77
2022/10/31 19:33:44;;;;;;;11.00;5.97;;;;;15.50;100460.00;;;;10281221;28;20212;-76
2022/10/31 19:38:50;;;;;;;11.00;5.72;;;;;15.40;100456.00;;;;10316912;28;20679;-77
2022/10/31 19:43:53;;;;;;;12.15;5.63;;;;;15.40;100439.00;;;;10317663;28;20200;-76
2022/10/31 19:48:54;;;;;;;11.93;5.70;;;;;15.40;100447.00;;;;10333441;28;20196;-76
2022/10/31 19:53:56;;;;;;;11.57;5.07;;;;;15.40;100433.00;;;;10299710;28;20283;-77
2022/10/31 19:58:58;;;;;;;11.02;5.47;;;;;15.50;100436.00;;;;10299170;28;20238;-76
2022/10/31 20:04:00;;;;;;;8.80;5.05;;;;;15.70;100443.00;;;;10282471;28;20222;-77
2022/10/31 20:09:06;;;;;;;8.45;4.88;;;;;15.80;100436.00;;;;10282780;28;20222;-77
2022/10/31 20:14:14;;;;;;;9.07;4.72;;;;;16.00;100423.00;;;;10308187;28;20264;-77
2022/10/31 20:19:15;;;;;;;8.27;5.28;;;;;16.00;100422.00;;;;10333871;28;20184;-77
2022/10/31 20:24:18;;;;;;;14.85;4.88;;;;;16.10;100419.00;;;;10322951;28;20223;-77
2022/10/31 20:29:20;;;;;;;10.95;4.57;;;;;16.20;100432.00;;;;10355751;28;20690;-77
2022/10/31 20:34:21;;;;;;;16.58;6.72;;;;;16.20;100426.00;;;;10345085;28;20574;-77
2022/10/31 20:39:23;;;;;;;12.05;5.10;;;;;16.20;100422.00;;;;10317166;28;20651;-77
2022/10/31 20:44:25;;;;;;;8.23;5.05;;;;;16.10;100419.00;;;;10297651;28;20667;-76
2022/10/31 20:49:29;;;;;;;9.43;5.25;;;;;15.90;100412.00;;;;10316842;28;20654;-77
2022/10/31 20:54:31;;;;;;;11.82;5.13;;;;;15.90;100429.00;;;;10299507;28;20228;-77
2022/10/31 20:59:32;;;;;;;10.07;5.35;;;;;15.90;100423.00;;;;10300785;28;20287;-77
2022/10/31 21:04:34;;;;;;;10.35;4.97;;;;;15.90;100426.00;;;;10315813;28;20205;-77
2022/10/31 21:09:36;;;;;;;12.63;6.82;;;;;15.90;100422.00;;;;10315149;28;20647;-77
2022/10/31 21:14:38;;;;;;;13.85;4.72;;;;;15.90;100420.00;;;;10319111;28;20215;-77
2022/10/31 21:19:40;;;;;;;8.25;5.45;;;;;16.00;100416.00;;;;10288762;28;20192;-77
2022/10/31 21:24:42;;;;;;;12.38;5.13;;;;;16.00;100403.00;;;;10280376;28;20670;-77
2022/10/31 21:29:44;;;;;;;12.38;5.38;;;;;16.10;100405.00;;;;10312125;28;20193;-77
2022/10/31 21:34:48;;;;;;;11.18;5.60;;;;;16.20;100412.00;;;;10296585;28;20695;-77
2022/10/31 21:39:50;;;;;;;9.52;4.82;;;;;16.20;100394.00;;;;10311907;28;20196;-77
2022/10/31 21:44:52;;;;;;;8.60;5.22;;;;;16.20;100385.00;;;;10296558;28;20202;-77
2022/10/31 21:49:54;;;;;;;11.10;5.30;;;;;16.10;100369.00;;;;10293177;28;20192;-77
2022/10/31 21:54:56;;;;;;;13.80;5.57;;;;;16.10;100368.00;;;;10324808;28;20219;-76
2022/10/31 21:59:58;;;;;;;11.77;5.40;;;;;16.10;100357.00;;;;10308761;28;20204;-77
2022/10/31 22:05:00;;;;;;;10.98;6.10;;;;;16.20;100365.00;;;;10308760;28;20215;-77
2022/10/31 22:10:02;;;;;;;12.15;5.60;;;;;16.20;100374.00;;;;10341104;28;20235;-77
2022/10/31 22:15:04;;;;;;;12.93;5.22;;;;;16.20;100378.00;;;;10334133;28;20205;-78
2022/10/31 22:20:07;;;;;;;15.57;5.80;;;;;16.40;100363.00;;;;10349409;28;20195;-77
2022/10/31 22:25:09;;;;;;;12.02;6.32;;;;;16.40;100354.00;;;;10353267;28;20246;-78
2022/10/31 22:30:11;;;;;;;14.50;5.43;;;;;16.50;100350.00;;;;10317226;28;20188;-77
2022/10/31 22:35:13;;;;;;;9.40;5.30;;;;;16.60;100348.00;;;;10314318;28;20364;-77
2022/10/31 22:40:15;;;;;;;12.30;4.80;;;;;16.60;100332.00;;;;10282678;28;20236;-78
2022/10/31 22:45:17;;;;;;;8.18;4.85;;;;;16.70;100333.00;;;;10346147;28;20191;-77
2022/10/31 22:50:18;;;;;;;16.15;4.88;;;;;16.60;100326.00;;;;10327165;28;20656;-77
2022/10/31 22:55:20;;;;;;;7.32;4.75;;;;;16.60;100317.00;;;;10326917;28;20208;-76
2022/10/31 23:00:22;;;;;;;11.30;4.47;;;;;16.60;100307.00;;;;10307420;28;20287;-76
2022/10/31 23:05:24;;;;;;;5.82;4.28;;;;;16.60;100304.00;;;;10289865;28;20303;-77
2022/10/31 23:10:31;;;;;;;11.68;4.75;;;;;16.70;100299.00;;;;10299821;28;20204;-77
2022/10/31 23:15:36;;;;;;;7.75;4.47;;;;;16.70;100306.00;;;;10334999;28;20203;-76
2022/10/31 23:20:38;;;;;;;13.77;5.13;;;;;16.60;100311.00;;;;10333938;28;20192;-77
2022/10/31 23:31:05;;;;;;;9.77;4.05;;;;;16.70;100299.00;;;;10286334;28;20180;-76
2022/10/31 23:36:07;;;;;;;8.63;4.45;;;;;16.80;100297.00;;;;10317023;28;20687;-77
2022/10/31 23:41:09;;;;;;;7.53;5.05;;;;;16.90;100301.00;;;;10316928;28;20660;-77
2022/10/31 23:46:11;;;;;;;10.85;4.90;;;;;16.90;100299.00;;;;10300937;28;20196;-77
2022/10/31 23:51:13;;;;;;;8.18;3.97;;;;;17.00;100298.00;;;;10316508;28;20192;-77
2022/10/31 23:56:15;;;;;;;5.97;3.63;;;;;17.00;100277.00;;;;10286572;28;20227;-77
